Time;durP1;ratioP1;P1;durP2;ratioP2;P2;SDS_P1;SDS_P2;PMS_P1;PMS_P2;Temp;Humidity;BMP_temperature;BMP_pressure;BME280_temperature;BME280_humidity;BME280_pressure;Samples;Min_cycle;Max_cycle;Signal;HPM_P1;HPM_P2
2021/06/04 00:01:04;;;;;;;10.80;10.00;;;;;;;;;;4990548;28;20270;-62
2021/06/04 00:03:29;;;;;;;11.20;10.40;;;;;;;;;;4980423;28;20661;-62
2021/06/04 00:05:55;;;;;;;10.70;9.90;;;;;;;;;;4989351;28;20615;-62
2021/06/04 00:08:21;;;;;;;11.23;10.43;;;;;;;;;;4987872;28;20918;-62
2021/06/04 00:10:49;;;;;;;10.83;10.03;;;;;;;;;;4990460;28;20708;-62
2021/06/04 00:13:17;;;;;;;11.43;10.53;;;;;;;;;;4988442;28;21184;-61
2021/06/04 00:15:42;;;;;;;9.53;8.90;;;;;;;;;;4989743;28;20643;-62
2021/06/04 00:18:08;;;;;;;11.60;10.60;;;;;;;;;;4990099;28;20587;-62
2021/06/04 00:20:33;;;;;;;10.83;9.93;;;;;;;;;;4989485;28;20172;-62
2021/06/04 00:22:58;;;;;;;9.77;9.10;;;;;;;;;;4988750;28;20891;-62
2021/06/04 00:25:23;;;;;;;10.87;9.97;;;;;;;;;;4997438;28;20175;-61
2021/06/04 00:27:48;;;;;;;10.63;9.65;;;;;;;;;;4995107;28;20197;-61
2021/06/04 00:30:14;;;;;;;10.63;9.93;;;;;;;;;;4986909;28;20575;-62
2021/06/04 00:32:40;;;;;;;11.27;10.47;;;;;;;;;;4990571;28;20206;-62
2021/06/04 00:35:06;;;;;;;11.63;10.77;;;;;;;;;;4989781;28;20218;-61
2021/06/04 00:37:31;;;;;;;11.10;10.20;;;;;;;;;;4988463;28;20173;-62
2021/06/04 00:39:56;;;;;;;10.93;10.02;;;;;;;;;;4982022;28;20623;-62
2021/06/04 00:42:27;;;;;;;10.70;9.80;;;;;;;;;;4987518;28;20211;-62
2021/06/04 00:44:54;;;;;;;10.83;10.03;;;;;;;;;;5000908;28;20181;-62
2021/06/04 00:47:20;;;;;;;11.60;10.40;;;;;;;;;;4988119;28;20959;-63
2021/06/04 00:49:45;;;;;;;10.30;9.63;;;;;;;;;;4987855;28;20594;-62
2021/06/04 00:52:15;;;;;;;11.33;10.53;;;;;;;;;;4987346;28;20348;-62
2021/06/04 00:54:41;;;;;;;10.73;9.93;;;;;;;;;;4998920;28;20241;-62
2021/06/04 00:57:06;;;;;;;11.27;10.47;;;;;;;;;;4990416;28;20601;-63
2021/06/04 00:59:39;;;;;;;10.80;10.00;;;;;;;;;;4989966;28;20344;-62
2021/06/04 01:02:09;;;;;;;10.70;10.00;;;;;;;;;;4992136;28;20175;-63
2021/06/04 01:04:34;;;;;;;11.50;10.53;;;;;;;;;;4988117;28;20606;-63
2021/06/04 01:07:17;;;;;;;10.97;10.17;;;;;;;;;;5001192;28;20679;-64
2021/06/04 01:10:04;;;;;;;10.80;9.90;;;;;;;;;;4989460;28;20250;-63
2021/06/04 01:12:35;;;;;;;10.43;9.63;;;;;;;;;;4988780;28;20613;-62
2021/06/04 01:15:11;;;;;;;10.50;9.70;;;;;;;;;;4990057;28;20648;-63
2021/06/04 01:18:02;;;;;;;11.73;10.67;;;;;;;;;;4988499;28;20601;-62
2021/06/04 01:20:48;;;;;;;10.17;9.47;;;;;;;;;;4982562;28;20627;-62
2021/06/04 01:23:22;;;;;;;11.40;10.60;;;;;;;;;;4984658;28;20620;-61
2021/06/04 01:26:07;;;;;;;10.20;9.53;;;;;;;;;;4991924;28;21207;-62
2021/06/04 01:28:34;;;;;;;10.07;9.37;;;;;;;;;;4989092;28;20630;-62
2021/06/04 01:30:59;;;;;;;13.20;10.33;;;;;;;;;;4992638;28;20720;-62
2021/06/04 01:33:27;;;;;;;11.75;10.77;;;;;;;;;;4987436;28;20843;-62
2021/06/04 01:35:54;;;;;;;10.17;9.37;;;;;;;;;;4990192;28;20688;-61
2021/06/04 01:38:24;;;;;;;10.73;9.93;;;;;;;;;;4978944;28;20627;-63
2021/06/04 01:40:51;;;;;;;10.07;9.30;;;;;;;;;;4986968;28;20991;-65
2021/06/04 01:43:28;;;;;;;11.17;10.20;;;;;;;;;;4988263;28;20604;-63
2021/06/04 01:45:57;;;;;;;10.00;9.30;;;;;;;;;;4991471;28;21040;-65
2021/06/04 01:48:27;;;;;;;10.60;9.70;;;;;;;;;;4988372;28;21153;-62
2021/06/04 01:50:57;;;;;;;10.17;9.33;;;;;;;;;;4990898;28;20608;-62
2021/06/04 01:53:26;;;;;;;10.17;9.30;;;;;;;;;;4990901;28;20615;-61
2021/06/04 01:55:54;;;;;;;9.33;8.70;;;;;;;;;;4986681;28;21097;-63
2021/06/04 01:58:23;;;;;;;10.30;9.60;;;;;;;;;;4987002;28;20623;-62
2021/06/04 02:00:53;;;;;;;11.07;10.37;;;;;;;;;;4986322;28;20609;-62
2021/06/04 02:03:20;;;;;;;11.00;10.20;;;;;;;;;;4986185;28;20702;-62
2021/06/04 02:05:46;;;;;;;10.67;9.70;;;;;;;;;;4986130;28;20732;-63
2021/06/04 02:08:13;;;;;;;9.57;8.87;;;;;;;;;;4986739;28;20611;-64
2021/06/04 02:10:41;;;;;;;9.37;8.57;;;;;;;;;;4988367;28;20277;-64
2021/06/04 02:13:08;;;;;;;9.70;9.10;;;;;;;;;;4995863;28;20622;-64
2021/06/04 02:15:36;;;;;;;9.00;8.40;;;;;;;;;;4987371;28;20728;-66
2021/06/04 02:18:19;;;;;;;9.83;9.13;;;;;;;;;;4988932;28;20648;-64
2021/06/04 02:21:05;;;;;;;10.00;9.30;;;;;;;;;;4979164;28;20595;-64
2021/06/04 02:23:41;;;;;;;9.50;8.63;;;;;;;;;;4987047;28;20657;-64
2021/06/04 02:26:06;;;;;;;9.40;8.70;;;;;;;;;;4988478;28;20715;-62
2021/06/04 02:28:35;;;;;;;9.73;8.93;;;;;;;;;;4987615;28;20748;-61
2021/06/04 02:31:04;;;;;;;9.20;8.60;;;;;;;;;;5001594;28;20239;-63
2021/06/04 02:33:31;;;;;;;9.03;8.43;;;;;;;;;;4985020;28;20608;-62
2021/06/04 02:35:59;;;;;;;8.93;8.33;;;;;;;;;;4989120;28;20697;-63
2021/06/04 02:38:28;;;;;;;9.67;8.87;;;;;;;;;;4979089;28;21188;-63
2021/06/04 02:41:05;;;;;;;9.17;8.47;;;;;;;;;;4984043;28;21509;-63
2021/06/04 02:43:33;;;;;;;10.07;9.30;;;;;;;;;;4986956;28;20602;-64
2021/06/04 02:46:01;;;;;;;10.07;9.17;;;;;;;;;;4993855;28;20687;-63
2021/06/04 02:48:27;;;;;;;10.23;9.27;;;;;;;;;;4985734;28;20606;-63
2021/06/04 02:50:57;;;;;;;9.40;8.70;;;;;;;;;;4985695;28;20590;-62
2021/06/04 02:53:34;;;;;;;9.40;8.70;;;;;;;;;;4986356;28;21515;-63
2021/06/04 02:55:59;;;;;;;9.83;9.13;;;;;;;;;;4988072;28;20715;-63
2021/06/04 02:58:24;;;;;;;9.35;8.63;;;;;;;;;;4986039;28;20639;-63
2021/06/04 03:00:49;;;;;;;8.90;8.30;;;;;;;;;;4990051;28;20544;-63
2021/06/04 03:03:15;;;;;;;9.48;8.80;;;;;;;;;;4985435;28;20191;-66
2021/06/04 03:05:40;;;;;;;9.15;8.40;;;;;;;;;;4984975;28;20177;-65
2021/06/04 03:08:06;;;;;;;9.10;8.30;;;;;;;;;;4987749;28;20608;-63
2021/06/04 03:10:37;;;;;;;8.30;7.70;;;;;;;;;;4982735;28;20529;-63
2021/06/04 03:13:04;;;;;;;8.50;7.90;;;;;;;;;;4985812;28;20592;-63
2021/06/04 03:15:44;;;;;;;8.57;8.07;;;;;;;;;;4985167;28;20659;-63
2021/06/04 03:18:10;;;;;;;8.50;7.93;;;;;;;;;;4985886;28;20624;-64
2021/06/04 03:20:43;;;;;;;9.17;8.57;;;;;;;;;;4992840;28;20660;-64
2021/06/04 03:23:10;;;;;;;9.73;9.03;;;;;;;;;;4987758;28;21310;-63
2021/06/04 03:25:40;;;;;;;8.73;8.03;;;;;;;;;;4983470;28;20658;-63
2021/06/04 03:28:06;;;;;;;9.40;8.70;;;;;;;;;;4983798;28;20623;-61
2021/06/04 03:30:33;;;;;;;9.50;8.80;;;;;;;;;;4992256;28;20749;-60
2021/06/04 03:32:58;;;;;;;10.80;9.40;;;;;;;;;;4985774;28;20605;-61
2021/06/04 03:35:24;;;;;;;8.83;8.27;;;;;;;;;;4984674;28;21005;-61
2021/06/04 03:37:49;;;;;;;9.90;9.10;;;;;;;;;;4986589;28;20256;-61
2021/06/04 03:40:16;;;;;;;10.67;9.57;;;;;;;;;;4990167;28;20181;-62
2021/06/04 03:42:42;;;;;;;10.60;9.83;;;;;;;;;;4998890;28;20839;-63
2021/06/04 03:45:08;;;;;;;9.37;8.57;;;;;;;;;;4988478;28;20604;-62
2021/06/04 03:47:34;;;;;;;9.43;8.43;;;;;;;;;;4984972;28;20702;-62
2021/06/04 03:49:59;;;;;;;8.87;8.27;;;;;;;;;;4983874;28;20691;-62
2021/06/04 03:52:25;;;;;;;8.80;8.20;;;;;;;;;;4989098;28;20664;-62
2021/06/04 03:54:52;;;;;;;9.20;8.33;;;;;;;;;;4985575;28;20217;-62
2021/06/04 03:57:19;;;;;;;8.77;8.07;;;;;;;;;;4985360;28;20671;-63
2021/06/04 03:59:45;;;;;;;8.50;7.80;;;;;;;;;;4987458;28;20690;-63
2021/06/04 04:02:12;;;;;;;8.43;7.73;;;;;;;;;;4992748;28;21160;-63
2021/06/04 04:04:37;;;;;;;8.67;7.90;;;;;;;;;;4987647;28;20180;-64
2021/06/04 04:07:03;;;;;;;8.57;7.87;;;;;;;;;;4993530;28;20620;-63
2021/06/04 04:09:28;;;;;;;8.20;7.60;;;;;;;;;;4982224;28;20371;-63
2021/06/04 04:11:54;;;;;;;9.35;8.43;;;;;;;;;;4992839;28;20197;-62
2021/06/04 04:14:20;;;;;;;8.53;7.73;;;;;;;;;;4986271;28;20219;-63
2021/06/04 04:16:45;;;;;;;8.40;7.70;;;;;;;;;;4988457;28;20310;-63
2021/06/04 04:19:10;;;;;;;8.07;7.37;;;;;;;;;;4989566;28;20619;-63
2021/06/04 04:21:36;;;;;;;8.50;7.70;;;;;;;;;;4989516;28;20177;-62
2021/06/04 04:24:04;;;;;;;7.80;7.20;;;;;;;;;;4990246;28;20176;-63
2021/06/04 04:26:31;;;;;;;8.60;7.70;;;;;;;;;;4991520;28;20213;-62
2021/06/04 04:28:57;;;;;;;8.40;7.60;;;;;;;;;;4982067;28;20644;-63
2021/06/04 04:31:24;;;;;;;8.60;8.00;;;;;;;;;;4984785;28;20731;-63
2021/06/04 04:33:49;;;;;;;8.07;7.47;;;;;;;;;;4989234;28;20600;-63
2021/06/04 04:36:17;;;;;;;8.93;8.20;;;;;;;;;;4984640;28;20690;-64
2021/06/04 04:38:42;;;;;;;7.57;6.97;;;;;;;;;;4979520;28;20185;-64
2021/06/04 04:41:08;;;;;;;7.50;7.00;;;;;;;;;;5003278;28;20654;-63
2021/06/04 04:43:38;;;;;;;8.10;7.60;;;;;;;;;;4992260;28;20180;-63
2021/06/04 04:46:04;;;;;;;8.20;7.60;;;;;;;;;;4988831;28;20962;-62
2021/06/04 04:48:29;;;;;;;7.97;7.37;;;;;;;;;;4986048;28;20629;-63
2021/06/04 04:50:55;;;;;;;8.10;7.53;;;;;;;;;;4984391;28;20586;-63
2021/06/04 04:53:21;;;;;;;7.85;7.22;;;;;;;;;;4985220;28;20170;-63
2021/06/04 04:55:46;;;;;;;7.40;6.70;;;;;;;;;;4985056;28;20956;-63
2021/06/04 04:58:11;;;;;;;8.27;7.57;;;;;;;;;;4991778;28;20666;-63
2021/06/04 05:00:37;;;;;;;7.87;7.30;;;;;;;;;;5006370;28;20173;-63
2021/06/04 05:03:04;;;;;;;8.03;7.50;;;;;;;;;;4985930;28;20201;-63
2021/06/04 05:05:30;;;;;;;8.40;7.70;;;;;;;;;;4984387;28;20610;-64
2021/06/04 05:07:55;;;;;;;8.10;7.40;;;;;;;;;;4995704;28;20611;-63
2021/06/04 05:10:20;;;;;;;8.50;7.90;;;;;;;;;;4984612;28;20236;-64
2021/06/04 05:12:45;;;;;;;9.50;8.60;;;;;;;;;;4993679;28;20190;-64
2021/06/04 05:15:13;;;;;;;8.00;7.30;;;;;;;;;;4983302;28;20671;-64
2021/06/04 05:17:39;;;;;;;8.63;7.60;;;;;;;;;;4987195;28;20645;-64
2021/06/04 05:20:04;;;;;;;7.77;7.17;;;;;;;;;;4987362;28;20600;-63
2021/06/04 05:22:30;;;;;;;7.50;6.90;;;;;;;;;;4988129;28;20181;-62
2021/06/04 05:24:55;;;;;;;7.57;7.00;;;;;;;;;;4986993;28;20578;-62
2021/06/04 05:27:20;;;;;;;7.70;7.20;;;;;;;;;;4988873;28;20579;-63
2021/06/04 05:29:45;;;;;;;7.67;7.10;;;;;;;;;;4989088;28;20219;-63
2021/06/04 05:32:11;;;;;;;7.80;7.20;;;;;;;;;;4989036;28;20669;-62
2021/06/04 05:34:36;;;;;;;8.03;7.33;;;;;;;;;;4987053;28;20199;-63
2021/06/04 05:37:01;;;;;;;7.60;7.10;;;;;;;;;;4990471;28;20213;-63
2021/06/04 05:39:27;;;;;;;7.77;7.17;;;;;;;;;;4987295;28;20172;-63
2021/06/04 05:41:54;;;;;;;7.47;6.97;;;;;;;;;;4988193;28;20198;-64
2021/06/04 05:44:20;;;;;;;8.63;7.97;;;;;;;;;;4988395;28;20399;-63
2021/06/04 05:46:47;;;;;;;8.90;7.60;;;;;;;;;;4978564;28;20682;-63
2021/06/04 05:49:12;;;;;;;7.77;7.20;;;;;;;;;;4987129;28;20773;-63
2021/06/04 05:51:39;;;;;;;7.65;7.00;;;;;;;;;;4986691;28;20669;-62
2021/06/04 05:54:04;;;;;;;7.63;7.13;;;;;;;;;;4987746;28;20526;-62
2021/06/04 05:56:30;;;;;;;8.10;7.30;;;;;;;;;;4985308;28;20687;-63
2021/06/04 05:58:55;;;;;;;7.43;6.83;;;;;;;;;;4987844;28;20272;-64
2021/06/04 06:01:23;;;;;;;7.70;7.10;;;;;;;;;;4986458;28;20221;-62
2021/06/04 06:03:49;;;;;;;7.27;6.67;;;;;;;;;;4987568;28;20166;-63
2021/06/04 06:06:14;;;;;;;7.90;7.40;;;;;;;;;;4987194;28;20580;-62
2021/06/04 06:08:43;;;;;;;8.03;7.33;;;;;;;;;;5003781;28;20500;-63
2021/06/04 06:11:09;;;;;;;7.57;7.07;;;;;;;;;;5006624;28;20184;-63
2021/06/04 06:13:34;;;;;;;8.70;7.27;;;;;;;;;;5003267;28;20667;-63
2021/06/04 06:16:00;;;;;;;7.90;7.30;;;;;;;;;;5002169;28;20730;-63
2021/06/04 06:18:25;;;;;;;7.27;6.77;;;;;;;;;;4987134;28;20188;-63
2021/06/04 06:20:51;;;;;;;8.10;7.40;;;;;;;;;;4985247;28;20177;-63
2021/06/04 06:23:20;;;;;;;7.97;7.47;;;;;;;;;;5000504;28;20177;-65
2021/06/04 06:25:47;;;;;;;7.17;6.63;;;;;;;;;;4984627;28;21159;-64
2021/06/04 06:28:14;;;;;;;7.50;6.80;;;;;;;;;;4984076;28;20641;-64
2021/06/04 06:30:39;;;;;;;8.10;7.33;;;;;;;;;;4983097;28;20672;-63
2021/06/04 06:33:04;;;;;;;7.77;7.07;;;;;;;;;;4986727;28;20634;-64
2021/06/04 06:35:35;;;;;;;7.82;7.32;;;;;;;;;;4998873;28;20199;-64
2021/06/04 06:38:00;;;;;;;8.13;6.77;;;;;;;;;;5003069;28;20194;-64
2021/06/04 06:40:26;;;;;;;7.72;7.03;;;;;;;;;;4981849;28;20708;-63
2021/06/04 06:42:51;;;;;;;7.13;6.63;;;;;;;;;;4979674;28;20193;-63
2021/06/04 06:45:16;;;;;;;7.67;7.07;;;;;;;;;;4977648;28;20214;-62
2021/06/04 06:47:41;;;;;;;8.33;7.63;;;;;;;;;;4965638;28;20221;-63
2021/06/04 06:50:08;;;;;;;7.30;6.80;;;;;;;;;;4968958;28;20644;-63
2021/06/04 06:52:34;;;;;;;7.83;7.33;;;;;;;;;;4975676;28;20192;-63
2021/06/04 06:54:59;;;;;;;8.07;7.37;;;;;;;;;;4966074;28;21499;-65
2021/06/04 06:57:24;;;;;;;8.70;8.00;;;;;;;;;;4962499;28;20602;-63
2021/06/04 06:59:49;;;;;;;8.48;7.88;;;;;;;;;;4977725;28;20178;-64
2021/06/04 07:02:15;;;;;;;7.37;6.80;;;;;;;;;;4986610;28;20177;-63
2021/06/04 07:04:41;;;;;;;7.80;7.20;;;;;;;;;;4986632;28;20174;-63
2021/06/04 07:07:06;;;;;;;8.30;7.60;;;;;;;;;;4987074;28;21064;-63
2021/06/04 07:09:32;;;;;;;7.27;6.77;;;;;;;;;;4987130;28;20223;-63
2021/06/04 07:11:57;;;;;;;7.67;6.97;;;;;;;;;;4987056;28;20185;-63
2021/06/04 07:14:26;;;;;;;7.83;7.33;;;;;;;;;;4984550;28;20236;-65
2021/06/04 07:16:52;;;;;;;7.60;6.97;;;;;;;;;;4983534;28;20189;-63
2021/06/04 07:19:17;;;;;;;7.97;7.47;;;;;;;;;;4991729;28;20605;-62
2021/06/04 07:21:42;;;;;;;7.40;6.80;;;;;;;;;;4992437;28;20259;-63
2021/06/04 07:24:13;;;;;;;8.30;7.60;;;;;;;;;;4990117;28;20204;-63
2021/06/04 07:26:39;;;;;;;7.80;7.20;;;;;;;;;;4990076;28;20173;-63
2021/06/04 07:29:05;;;;;;;7.70;6.90;;;;;;;;;;4989742;28;20648;-64
2021/06/04 07:31:30;;;;;;;9.27;7.43;;;;;;;;;;4992069;28;20735;-63
2021/06/04 07:33:56;;;;;;;7.87;7.30;;;;;;;;;;5001984;28;20541;-63
2021/06/04 07:36:23;;;;;;;8.33;7.73;;;;;;;;;;4987092;28;20206;-63
2021/06/04 07:38:49;;;;;;;8.30;7.53;;;;;;;;;;4979323;28;20619;-63
2021/06/04 07:41:14;;;;;;;8.73;7.83;;;;;;;;;;4986637;28;20937;-63
2021/06/04 07:43:41;;;;;;;8.30;7.53;;;;;;;;;;4990889;28;20623;-63
2021/06/04 07:46:07;;;;;;;7.47;6.97;;;;;;;;;;4989849;28;20184;-64
2021/06/04 07:48:33;;;;;;;8.00;7.30;;;;;;;;;;4989657;28;21216;-64
2021/06/04 07:50:59;;;;;;;8.30;7.70;;;;;;;;;;4981819;28;20604;-63
2021/06/04 07:53:27;;;;;;;8.00;7.30;;;;;;;;;;4984064;28;20932;-63
2021/06/04 07:55:53;;;;;;;8.50;7.80;;;;;;;;;;4990731;28;20213;-63
2021/06/04 07:58:18;;;;;;;7.37;6.87;;;;;;;;;;4986391;28;20594;-63
2021/06/04 08:00:43;;;;;;;7.83;7.13;;;;;;;;;;4989703;28;20206;-64
2021/06/04 08:03:09;;;;;;;12.93;7.68;;;;;;;;;;4989734;28;20194;-63
2021/06/04 08:05:35;;;;;;;8.10;7.30;;;;;;;;;;4990686;28;20552;-63
2021/06/04 08:08:02;;;;;;;8.47;7.77;;;;;;;;;;4988746;28;20188;-64
2021/06/04 08:10:28;;;;;;;7.00;6.60;;;;;;;;;;4987243;28;20601;-64
2021/06/04 08:12:53;;;;;;;8.07;7.47;;;;;;;;;;4999935;28;20581;-63
2021/06/04 08:15:21;;;;;;;7.77;7.17;;;;;;;;;;4988566;28;20425;-63
2021/06/04 08:17:47;;;;;;;7.43;6.93;;;;;;;;;;4987561;28;20208;-63
2021/06/04 08:20:13;;;;;;;7.70;7.03;;;;;;;;;;4989501;28;20664;-63
2021/06/04 08:22:40;;;;;;;7.00;6.53;;;;;;;;;;4990514;28;20241;-63
2021/06/04 08:25:06;;;;;;;7.70;6.93;;;;;;;;;;4986806;28;20566;-63
2021/06/04 08:27:31;;;;;;;7.90;7.30;;;;;;;;;;4986780;28;20602;-63
2021/06/04 08:29:56;;;;;;;7.93;7.22;;;;;;;;;;4988639;28;20203;-63
2021/06/04 08:32:21;;;;;;;7.50;6.88;;;;;;;;;;4986578;28;20232;-64
2021/06/04 08:34:46;;;;;;;7.22;6.72;;;;;;;;;;4987872;28;20784;-63
2021/06/04 08:37:12;;;;;;;7.27;6.77;;;;;;;;;;4991892;28;20188;-64
2021/06/04 08:39:39;;;;;;;7.17;6.57;;;;;;;;;;4985528;28;20213;-64
2021/06/04 08:42:08;;;;;;;7.60;7.00;;;;;;;;;;4979732;28;20644;-63
2021/06/04 08:44:59;;;;;;;7.07;6.47;;;;;;;;;;4985752;28;20595;-64
2021/06/04 08:47:26;;;;;;;7.90;7.40;;;;;;;;;;4981114;28;21124;-62
2021/06/04 08:49:51;;;;;;;7.33;6.90;;;;;;;;;;4986942;28;20575;-63
2021/06/04 08:52:35;;;;;;;7.15;6.65;;;;;;;;;;4992952;28;20598;-63
2021/06/04 08:55:00;;;;;;;6.80;6.40;;;;;;;;;;4984916;28;20274;-63
2021/06/04 08:57:25;;;;;;;7.18;6.60;;;;;;;;;;4989404;28;20597;-63
2021/06/04 08:59:50;;;;;;;7.00;6.55;;;;;;;;;;4987970;28;20231;-63
2021/06/04 09:02:20;;;;;;;6.70;6.20;;;;;;;;;;4986844;28;20230;-63
2021/06/04 09:04:51;;;;;;;7.30;6.80;;;;;;;;;;4986861;28;20181;-64
2021/06/04 09:07:22;;;;;;;8.30;7.60;;;;;;;;;;4988876;28;20579;-63
2021/06/04 09:09:51;;;;;;;7.80;7.20;;;;;;;;;;4985208;28;21140;-63
2021/06/04 09:12:19;;;;;;;7.20;6.60;;;;;;;;;;4988991;28;20563;-63
2021/06/04 09:14:45;;;;;;;7.80;7.07;;;;;;;;;;4970573;28;21507;-63
2021/06/04 09:17:19;;;;;;;8.20;7.60;;;;;;;;;;4988776;28;21231;-63
2021/06/04 09:19:59;;;;;;;7.10;6.63;;;;;;;;;;4987169;28;20577;-63
2021/06/04 09:22:25;;;;;;;7.60;7.00;;;;;;;;;;4984945;28;20603;-63
2021/06/04 09:24:51;;;;;;;7.03;6.53;;;;;;;;;;5008974;28;20583;-63
2021/06/04 09:27:23;;;;;;;8.77;7.87;;;;;;;;;;4997078;28;20596;-63
2021/06/04 09:30:02;;;;;;;8.23;7.57;;;;;;;;;;4987899;28;20619;-63
2021/06/04 09:32:27;;;;;;;8.30;7.50;;;;;;;;;;4988429;28;21038;-63
2021/06/04 09:35:06;;;;;;;8.65;7.75;;;;;;;;;;4989166;28;21063;-64
2021/06/04 09:37:33;;;;;;;9.10;8.40;;;;;;;;;;4988524;28;20180;-64
2021/06/04 09:40:10;;;;;;;7.83;7.33;;;;;;;;;;4987523;28;20982;-64
2021/06/04 09:42:46;;;;;;;8.33;7.53;;;;;;;;;;4989628;28;20592;-63
2021/06/04 09:45:11;;;;;;;7.53;7.03;;;;;;;;;;4969844;28;20732;-63
2021/06/04 09:47:59;;;;;;;7.97;7.38;;;;;;;;;;4967992;28;20610;-63
2021/06/04 09:50:54;;;;;;;7.90;7.40;;;;;;;;;;4964789;28;20181;-63
2021/06/04 09:53:19;;;;;;;7.20;6.80;;;;;;;;;;4994305;28;20670;-62
2021/06/04 09:55:49;;;;;;;8.32;7.70;;;;;;;;;;5000702;28;20644;-62
2021/06/04 09:58:14;;;;;;;8.23;7.73;;;;;;;;;;4984951;28;20814;-63
2021/06/04 10:01:04;;;;;;;7.43;6.83;;;;;;;;;;4989225;28;20568;-63
2021/06/04 10:03:31;;;;;;;8.60;7.90;;;;;;;;;;4974328;28;20717;-63
2021/06/04 10:06:08;;;;;;;7.90;7.40;;;;;;;;;;4985205;28;20596;-64
2021/06/04 10:08:50;;;;;;;7.70;7.20;;;;;;;;;;4986484;28;20621;-63
2021/06/04 10:11:21;;;;;;;7.87;7.27;;;;;;;;;;4988393;28;20659;-63
2021/06/04 10:13:49;;;;;;;9.57;8.70;;;;;;;;;;4989130;28;20960;-63
2021/06/04 10:16:28;;;;;;;8.47;7.70;;;;;;;;;;4986548;28;20632;-63
2021/06/04 10:18:53;;;;;;;8.27;7.60;;;;;;;;;;4987947;28;20544;-63
2021/06/04 10:21:27;;;;;;;8.80;8.10;;;;;;;;;;4988083;28;20918;-63
2021/06/04 10:23:53;;;;;;;9.57;8.67;;;;;;;;;;4986388;28;20174;-62
2021/06/04 10:26:24;;;;;;;8.83;8.13;;;;;;;;;;4988325;28;20595;-63
2021/06/04 10:28:51;;;;;;;8.03;7.40;;;;;;;;;;4986300;28;20571;-63
2021/06/04 10:31:16;;;;;;;8.80;8.00;;;;;;;;;;4987847;28;20718;-63
2021/06/04 10:33:58;;;;;;;9.48;7.95;;;;;;;;;;4988945;28;20703;-63
2021/06/04 10:36:24;;;;;;;8.53;7.77;;;;;;;;;;4986437;28;20268;-63
2021/06/04 10:38:53;;;;;;;9.10;7.60;;;;;;;;;;5005063;28;20563;-62
2021/06/04 10:41:38;;;;;;;8.47;7.77;;;;;;;;;;5007751;28;21177;-63
2021/06/04 10:44:10;;;;;;;7.50;6.90;;;;;;;;;;5001595;28;20686;-63
2021/06/04 10:46:54;;;;;;;7.80;7.20;;;;;;;;;;5006283;28;20906;-63
2021/06/04 10:49:28;;;;;;;7.80;7.30;;;;;;;;;;5005567;28;21434;-64
2021/06/04 10:51:56;;;;;;;8.07;7.57;;;;;;;;;;5006185;28;20640;-63
2021/06/04 10:54:25;;;;;;;7.80;7.10;;;;;;;;;;4999771;28;20607;-63
2021/06/04 10:57:03;;;;;;;7.70;7.10;;;;;;;;;;4987956;28;20571;-63
2021/06/04 10:59:33;;;;;;;7.90;7.40;;;;;;;;;;4979107;28;20921;-63
2021/06/04 11:02:02;;;;;;;7.97;7.47;;;;;;;;;;4985555;28;21077;-64
2021/06/04 11:04:37;;;;;;;7.90;7.30;;;;;;;;;;4986163;28;21318;-63
2021/06/04 11:07:07;;;;;;;7.40;6.80;;;;;;;;;;4987122;28;21129;-63
2021/06/04 11:09:43;;;;;;;7.20;6.70;;;;;;;;;;4985960;28;21106;-63
2021/06/04 11:12:08;;;;;;;7.90;7.33;;;;;;;;;;4987657;28;20578;-63
2021/06/04 11:14:39;;;;;;;8.07;7.37;;;;;;;;;;4986776;28;20605;-63
2021/06/04 11:17:12;;;;;;;8.17;7.60;;;;;;;;;;4987609;28;20177;-64
2021/06/04 11:19:40;;;;;;;7.57;7.07;;;;;;;;;;4987441;28;20695;-64
2021/06/04 11:22:08;;;;;;;7.23;6.83;;;;;;;;;;4990002;28;21165;-64
2021/06/04 11:24:48;;;;;;;7.87;7.30;;;;;;;;;;5005146;28;20599;-63
2021/06/04 11:27:21;;;;;;;7.60;7.00;;;;;;;;;;4981106;28;20604;-64
2021/06/04 11:29:47;;;;;;;7.33;6.70;;;;;;;;;;5005277;28;20608;-64
2021/06/04 11:32:18;;;;;;;9.20;6.70;;;;;;;;;;4998398;28;20670;-64
2021/06/04 11:34:49;;;;;;;6.07;5.57;;;;;;;;;;4966322;28;20943;-64
2021/06/04 11:37:25;;;;;;;7.80;7.10;;;;;;;;;;4979673;28;20981;-64
2021/06/04 11:39:54;;;;;;;7.17;6.60;;;;;;;;;;5005353;28;20622;-63
2021/06/04 11:42:22;;;;;;;6.87;6.27;;;;;;;;;;5005207;28;20638;-63
2021/06/04 11:44:50;;;;;;;6.50;6.10;;;;;;;;;;5005332;28;20629;-64
2021/06/04 11:47:15;;;;;;;5.43;5.13;;;;;;;;;;5006875;28;20699;-62
2021/06/04 11:49:55;;;;;;;9.25;6.50;;;;;;;;;;5005431;28;20683;-63
2021/06/04 11:52:27;;;;;;;5.33;4.90;;;;;;;;;;5002507;28;20292;-63
2021/06/04 11:55:11;;;;;;;6.20;5.87;;;;;;;;;;4987062;28;20606;-63
2021/06/04 11:57:42;;;;;;;6.73;6.17;;;;;;;;;;4984756;28;20572;-62
2021/06/04 12:00:25;;;;;;;6.07;5.60;;;;;;;;;;4987130;28;20588;-63
2021/06/04 12:02:51;;;;;;;6.30;5.77;;;;;;;;;;4990876;28;20565;-63
2021/06/04 12:05:17;;;;;;;6.23;5.60;;;;;;;;;;4988640;28;20638;-63
2021/06/04 12:08:02;;;;;;;5.85;5.40;;;;;;;;;;4999645;28;20595;-63
2021/06/04 12:10:46;;;;;;;5.70;5.30;;;;;;;;;;4990102;28;20189;-63
2021/06/04 12:13:28;;;;;;;6.07;5.57;;;;;;;;;;4990685;28;20897;-63
2021/06/04 12:15:53;;;;;;;6.20;5.60;;;;;;;;;;4988762;28;20632;-63
2021/06/04 12:18:37;;;;;;;5.88;5.47;;;;;;;;;;4990526;28;20577;-63
2021/06/04 12:21:03;;;;;;;6.07;5.57;;;;;;;;;;4990286;28;20679;-63
2021/06/04 12:23:40;;;;;;;7.33;6.70;;;;;;;;;;5006106;28;20692;-64
2021/06/04 12:26:05;;;;;;;5.70;5.33;;;;;;;;;;5010006;28;20177;-64
2021/06/04 12:28:32;;;;;;;6.43;5.93;;;;;;;;;;5008429;28;20699;-64
2021/06/04 12:31:29;;;;;;;6.00;5.60;;;;;;;;;;5008330;28;20229;-66
2021/06/04 12:33:57;;;;;;;6.20;5.60;;;;;;;;;;5008511;28;20595;-65
2021/06/04 12:36:40;;;;;;;6.07;5.67;;;;;;;;;;5010249;28;20643;-64
2021/06/04 12:39:33;;;;;;;6.40;5.83;;;;;;;;;;4969751;28;20587;-64
2021/06/04 12:42:04;;;;;;;5.40;5.10;;;;;;;;;;4969696;28;20902;-65
2021/06/04 12:44:30;;;;;;;6.03;5.53;;;;;;;;;;5009306;28;20612;-66
2021/06/04 12:46:56;;;;;;;5.90;5.50;;;;;;;;;;5010411;28;20557;-64
2021/06/04 12:49:22;;;;;;;5.77;5.37;;;;;;;;;;4986691;28;20201;-65
2021/06/04 12:51:48;;;;;;;6.07;5.57;;;;;;;;;;4989903;28;20620;-66
2021/06/04 12:54:21;;;;;;;6.50;5.93;;;;;;;;;;5009916;28;20679;-65
2021/06/04 12:56:49;;;;;;;5.50;5.10;;;;;;;;;;5008100;28;20651;-64
2021/06/04 12:59:17;;;;;;;6.23;5.53;;;;;;;;;;5009287;28;20550;-64
2021/06/04 13:01:58;;;;;;;5.63;5.33;;;;;;;;;;4993819;28;20671;-64
2021/06/04 13:04:26;;;;;;;6.00;5.60;;;;;;;;;;4987604;28;20686;-63
2021/06/04 13:06:53;;;;;;;6.67;5.90;;;;;;;;;;4992306;28;20615;-62
2021/06/04 13:09:29;;;;;;;6.57;5.97;;;;;;;;;;5001531;28;20605;-63
2021/06/04 13:11:54;;;;;;;6.40;6.00;;;;;;;;;;4990810;28;20688;-63
2021/06/04 13:14:29;;;;;;;5.70;5.30;;;;;;;;;;5000906;28;20667;-63
2021/06/04 13:16:55;;;;;;;7.03;6.53;;;;;;;;;;4989557;28;20242;-63
2021/06/04 13:19:25;;;;;;;6.13;5.63;;;;;;;;;;4987112;28;20691;-63
2021/06/04 13:21:52;;;;;;;6.70;6.20;;;;;;;;;;4988482;28;21099;-63
2021/06/04 13:24:25;;;;;;;6.77;6.37;;;;;;;;;;4989652;28;20943;-63
2021/06/04 13:26:52;;;;;;;5.90;5.50;;;;;;;;;;4987757;28;20663;-64
2021/06/04 13:29:28;;;;;;;5.90;5.30;;;;;;;;;;4988875;28;20707;-65
2021/06/04 13:31:55;;;;;;;5.97;5.57;;;;;;;;;;4990615;28;20648;-65
2021/06/04 13:34:22;;;;;;;6.30;5.80;;;;;;;;;;4987455;28;20637;-65
2021/06/04 13:36:47;;;;;;;6.87;6.27;;;;;;;;;;4997573;28;20641;-64
2021/06/04 13:39:17;;;;;;;6.27;5.77;;;;;;;;;;4996136;28;20712;-62
2021/06/04 13:41:45;;;;;;;5.80;5.40;;;;;;;;;;4987794;28;20604;-62
2021/06/04 13:44:13;;;;;;;5.87;5.47;;;;;;;;;;4988788;28;20608;-63
2021/06/04 13:46:40;;;;;;;6.07;5.67;;;;;;;;;;4987829;28;20588;-64
2021/06/04 13:49:11;;;;;;;6.63;6.13;;;;;;;;;;4987440;28;20605;-64
2021/06/04 13:51:39;;;;;;;7.30;6.60;;;;;;;;;;4988116;28;20601;-63
2021/06/04 13:54:06;;;;;;;6.50;6.00;;;;;;;;;;4996595;28;20614;-63
2021/06/04 13:56:31;;;;;;;6.10;5.50;;;;;;;;;;5003566;28;20640;-63
2021/06/04 13:59:32;;;;;;;5.80;5.35;;;;;;;;;;4992019;28;20605;-64
2021/06/04 14:02:20;;;;;;;6.00;5.60;;;;;;;;;;4937309;28;20190;-65
2021/06/04 14:04:50;;;;;;;5.60;5.20;;;;;;;;;;4965887;28;20580;-65
2021/06/04 14:07:30;;;;;;;6.07;5.50;;;;;;;;;;4975158;28;20659;-65
2021/06/04 14:10:14;;;;;;;5.80;5.20;;;;;;;;;;4983336;28;20667;-66
2021/06/04 14:12:40;;;;;;;6.70;6.20;;;;;;;;;;4984755;28;20601;-65
2021/06/04 14:15:25;;;;;;;6.87;6.00;;;;;;;;;;4983426;28;20636;-66
2021/06/04 14:17:50;;;;;;;6.33;5.93;;;;;;;;;;4985992;28;20970;-66
2021/06/04 14:20:31;;;;;;;6.00;5.60;;;;;;;;;;4983315;28;21429;-66
2021/06/04 14:22:56;;;;;;;6.50;6.10;;;;;;;;;;4984264;28;20271;-64
2021/06/04 14:25:23;;;;;;;5.90;5.50;;;;;;;;;;4984231;28;20605;-65
2021/06/04 14:28:03;;;;;;;6.30;5.90;;;;;;;;;;4981650;28;20649;-64
2021/06/04 14:30:38;;;;;;;6.50;6.10;;;;;;;;;;4985095;28;20929;-64
2021/06/04 14:33:13;;;;;;;6.20;5.80;;;;;;;;;;4983689;28;20679;-64
2021/06/04 14:35:38;;;;;;;6.60;6.10;;;;;;;;;;4982931;28;20644;-65
2021/06/04 14:38:03;;;;;;;5.97;5.47;;;;;;;;;;4986404;28;20593;-65
2021/06/04 14:40:31;;;;;;;6.33;5.80;;;;;;;;;;4981512;28;20178;-64
2021/06/04 14:42:56;;;;;;;6.73;6.20;;;;;;;;;;4994497;28;20201;-64
2021/06/04 14:45:22;;;;;;;6.53;6.03;;;;;;;;;;4990401;28;20660;-63
2021/06/04 14:47:48;;;;;;;6.53;6.07;;;;;;;;;;4984599;28;20637;-64
2021/06/04 14:50:15;;;;;;;6.50;6.00;;;;;;;;;;4977876;28;20627;-64
2021/06/04 14:52:41;;;;;;;6.07;5.57;;;;;;;;;;4973636;28;20887;-65